sensor_id;sensor_type;location;lat;lon;timestamp;P1;durP1;ratioP1;P2;durP2;ratioP2
29774;SDS011;16676;51.202;6.774;2023-05-03T00:03:46;5.68;;;2.33;;
29774;SDS011;16676;51.202;6.774;2023-05-03T00:07:48;5.68;;;2.67;;
29774;SDS011;16676;51.202;6.774;2023-05-03T00:11:50;5.43;;;2.47;;
29774;SDS011;16676;51.202;6.774;2023-05-03T00:15:53;6.75;;;2.47;;
29774;SDS011;16676;51.202;6.774;2023-05-03T00:19:55;7.95;;;2.13;;
29774;SDS011;16676;51.202;6.774;2023-05-03T00:23:57;3.95;;;2.22;;
29774;SDS011;16676;51.202;6.774;2023-05-03T00:27:59;6.28;;;2.22;;
29774;SDS011;16676;51.202;6.774;2023-05-03T00:32:02;3.45;;;2.10;;
29774;SDS011;16676;51.202;6.774;2023-05-03T00:36:07;5.72;;;2.50;;
29774;SDS011;16676;51.202;6.774;2023-05-03T00:40:10;4.80;;;2.45;;
29774;SDS011;16676;51.202;6.774;2023-05-03T00:44:15;5.60;;;2.75;;
29774;SDS011;16676;51.202;6.774;2023-05-03T00:48:18;5.38;;;2.50;;
29774;SDS011;16676;51.202;6.774;2023-05-03T00:52:20;4.63;;;2.50;;
29774;SDS011;16676;51.202;6.774;2023-05-03T00:56:22;4.43;;;2.28;;
29774;SDS011;16676;51.202;6.774;2023-05-03T01:00:25;6.80;;;2.85;;
29774;SDS011;16676;51.202;6.774;2023-05-03T01:04:29;5.82;;;2.72;;
29774;SDS011;16676;51.202;6.774;2023-05-03T01:08:32;5.18;;;2.25;;
29774;SDS011;16676;51.202;6.774;2023-05-03T01:12:39;6.05;;;2.95;;
29774;SDS011;16676;51.202;6.774;2023-05-03T01:16:50;5.55;;;2.65;;
29774;SDS011;16676;51.202;6.774;2023-05-03T01:20:58;7.70;;;2.40;;
29774;SDS011;16676;51.202;6.774;2023-05-03T01:25:04;5.28;;;2.40;;
29774;SDS011;16676;51.202;6.774;2023-05-03T01:29:08;3.92;;;2.03;;
29774;SDS011;16676;51.202;6.774;2023-05-03T01:33:13;5.00;;;2.10;;
29774;SDS011;16676;51.202;6.774;2023-05-03T01:37:22;4.55;;;2.33;;
29774;SDS011;16676;51.202;6.774;2023-05-03T01:41:25;5.80;;;2.55;;
29774;SDS011;16676;51.202;6.774;2023-05-03T01:45:28;6.22;;;2.25;;
29774;SDS011;16676;51.202;6.774;2023-05-03T01:49:30;4.85;;;2.00;;
29774;SDS011;16676;51.202;6.774;2023-05-03T01:53:33;4.75;;;2.15;;
29774;SDS011;16676;51.202;6.774;2023-05-03T01:57:38;4.55;;;2.20;;
29774;SDS011;16676;51.202;6.774;2023-05-03T02:01:39;3.90;;;2.10;;
29774;SDS011;16676;51.202;6.774;2023-05-03T02:05:41;6.05;;;2.45;;
29774;SDS011;16676;51.202;6.774;2023-05-03T02:09:43;4.28;;;2.30;;
29774;SDS011;16676;51.202;6.774;2023-05-03T02:13:48;6.80;;;2.35;;
29774;SDS011;16676;51.202;6.774;2023-05-03T02:17:50;3.17;;;1.80;;
29774;SDS011;16676;51.202;6.774;2023-05-03T02:21:53;5.32;;;2.25;;
29774;SDS011;16676;51.202;6.774;2023-05-03T02:25:55;5.57;;;2.30;;
29774;SDS011;16676;51.202;6.774;2023-05-03T02:29:59;4.55;;;2.10;;
29774;SDS011;16676;51.202;6.774;2023-05-03T02:34:01;3.88;;;2.15;;
29774;SDS011;16676;51.202;6.774;2023-05-03T02:38:03;4.45;;;2.42;;
29774;SDS011;16676;51.202;6.774;2023-05-03T02:42:05;4.07;;;2.05;;
29774;SDS011;16676;51.202;6.774;2023-05-03T02:46:09;3.33;;;1.85;;
29774;SDS011;16676;51.202;6.774;2023-05-03T02:50:11;5.85;;;2.33;;
29774;SDS011;16676;51.202;6.774;2023-05-03T02:54:13;4.10;;;1.92;;
29774;SDS011;16676;51.202;6.774;2023-05-03T02:58:15;5.10;;;2.10;;
29774;SDS011;16676;51.202;6.774;2023-05-03T03:02:18;5.32;;;1.67;;
29774;SDS011;16676;51.202;6.774;2023-05-03T03:06:21;3.78;;;1.83;;
29774;SDS011;16676;51.202;6.774;2023-05-03T03:10:23;4.72;;;1.92;;
29774;SDS011;16676;51.202;6.774;2023-05-03T03:14:25;3.85;;;1.90;;
29774;SDS011;16676;51.202;6.774;2023-05-03T03:18:28;2.80;;;1.65;;
29774;SDS011;16676;51.202;6.774;2023-05-03T03:22:31;3.53;;;2.10;;
29774;SDS011;16676;51.202;6.774;2023-05-03T03:26:32;3.08;;;1.75;;
29774;SDS011;16676;51.202;6.774;2023-05-03T03:30:34;5.50;;;2.25;;
29774;SDS011;16676;51.202;6.774;2023-05-03T03:34:38;5.50;;;2.30;;
29774;SDS011;16676;51.202;6.774;2023-05-03T03:38:40;3.53;;;1.88;;
29774;SDS011;16676;51.202;6.774;2023-05-03T03:42:41;4.25;;;2.03;;
29774;SDS011;16676;51.202;6.774;2023-05-03T03:46:43;4.03;;;2.00;;
29774;SDS011;16676;51.202;6.774;2023-05-03T03:50:47;3.55;;;1.83;;
29774;SDS011;16676;51.202;6.774;2023-05-03T03:54:49;6.80;;;2.13;;
29774;SDS011;16676;51.202;6.774;2023-05-03T03:58:51;3.35;;;1.83;;
29774;SDS011;16676;51.202;6.774;2023-05-03T04:02:53;2.50;;;2.00;;
29774;SDS011;16676;51.202;6.774;2023-05-03T04:06:57;4.55;;;2.22;;
29774;SDS011;16676;51.202;6.774;2023-05-03T04:11:00;3.40;;;2.13;;
29774;SDS011;16676;51.202;6.774;2023-05-03T04:15:03;7.70;;;2.08;;
29774;SDS011;16676;51.202;6.774;2023-05-03T04:19:06;6.15;;;2.15;;
29774;SDS011;16676;51.202;6.774;2023-05-03T04:23:09;5.32;;;2.35;;
29774;SDS011;16676;51.202;6.774;2023-05-03T04:27:11;4.82;;;2.08;;
29774;SDS011;16676;51.202;6.774;2023-05-03T04:31:13;6.22;;;2.40;;
29774;SDS011;16676;51.202;6.774;2023-05-03T04:35:15;4.70;;;2.38;;
29774;SDS011;16676;51.202;6.774;2023-05-03T04:39:19;5.75;;;3.25;;
29774;SDS011;16676;51.202;6.774;2023-05-03T04:43:21;6.53;;;2.92;;
29774;SDS011;16676;51.202;6.774;2023-05-03T04:47:23;7.00;;;3.70;;
29774;SDS011;16676;51.202;6.774;2023-05-03T04:51:25;7.55;;;4.10;;
29774;SDS011;16676;51.202;6.774;2023-05-03T04:55:28;12.10;;;4.10;;
29774;SDS011;16676;51.202;6.774;2023-05-03T04:59:30;7.95;;;3.63;;
29774;SDS011;16676;51.202;6.774;2023-05-03T05:03:32;5.47;;;2.97;;
29774;SDS011;16676;51.202;6.774;2023-05-03T05:07:34;10.52;;;3.20;;
29774;SDS011;16676;51.202;6.774;2023-05-03T05:11:38;6.05;;;2.92;;
29774;SDS011;16676;51.202;6.774;2023-05-03T05:15:39;8.18;;;3.97;;
29774;SDS011;16676;51.202;6.774;2023-05-03T05:19:41;7.05;;;3.53;;
29774;SDS011;16676;51.202;6.774;2023-05-03T05:23:43;6.22;;;3.35;;
29774;SDS011;16676;51.202;6.774;2023-05-03T05:27:46;7.43;;;3.22;;
29774;SDS011;16676;51.202;6.774;2023-05-03T05:31:48;6.45;;;3.53;;
29774;SDS011;16676;51.202;6.774;2023-05-03T05:35:51;8.32;;;3.60;;
29774;SDS011;16676;51.202;6.774;2023-05-03T05:39:53;6.43;;;2.90;;
29774;SDS011;16676;51.202;6.774;2023-05-03T05:43:58;6.22;;;3.28;;
29774;SDS011;16676;51.202;6.774;2023-05-03T05:48:00;7.75;;;3.22;;
29774;SDS011;16676;51.202;6.774;2023-05-03T05:52:03;5.25;;;2.95;;
29774;SDS011;16676;51.202;6.774;2023-05-03T05:56:05;7.75;;;3.05;;
29774;SDS011;16676;51.202;6.774;2023-05-03T06:00:09;6.40;;;2.80;;
29774;SDS011;16676;51.202;6.774;2023-05-03T06:04:14;10.60;;;3.10;;
29774;SDS011;16676;51.202;6.774;2023-05-03T06:08:16;4.93;;;2.63;;
29774;SDS011;16676;51.202;6.774;2023-05-03T06:12:18;9.00;;;2.90;;
29774;SDS011;16676;51.202;6.774;2023-05-03T06:16:21;6.10;;;3.00;;
29774;SDS011;16676;51.202;6.774;2023-05-03T06:20:23;7.20;;;2.95;;
29774;SDS011;16676;51.202;6.774;2023-05-03T06:24:25;4.70;;;2.47;;
29774;SDS011;16676;51.202;6.774;2023-05-03T06:28:30;4.43;;;2.90;;
29774;SDS011;16676;51.202;6.774;2023-05-03T06:32:33;4.72;;;2.38;;
29774;SDS011;16676;51.202;6.774;2023-05-03T06:36:35;6.00;;;2.80;;
29774;SDS011;16676;51.202;6.774;2023-05-03T06:40:37;5.47;;;2.55;;
29774;SDS011;16676;51.202;6.774;2023-05-03T06:44:40;4.47;;;2.60;;
29774;SDS011;16676;51.202;6.774;2023-05-03T06:48:44;7.95;;;2.53;;
29774;SDS011;16676;51.202;6.774;2023-05-03T06:52:45;7.18;;;2.80;;
29774;SDS011;16676;51.202;6.774;2023-05-03T06:56:47;4.80;;;2.20;;
29774;SDS011;16676;51.202;6.774;2023-05-03T07:00:50;4.07;;;2.38;;
29774;SDS011;16676;51.202;6.774;2023-05-03T07:04:54;4.20;;;2.50;;
29774;SDS011;16676;51.202;6.774;2023-05-03T07:08:56;3.85;;;2.20;;
29774;SDS011;16676;51.202;6.774;2023-05-03T07:12:58;5.45;;;2.20;;
29774;SDS011;16676;51.202;6.774;2023-05-03T07:17:00;4.05;;;2.30;;
29774;SDS011;16676;51.202;6.774;2023-05-03T07:21:03;4.93;;;2.20;;
29774;SDS011;16676;51.202;6.774;2023-05-03T07:25:06;4.38;;;2.20;;
29774;SDS011;16676;51.202;6.774;2023-05-03T07:29:08;4.80;;;2.22;;
29774;SDS011;16676;51.202;6.774;2023-05-03T07:33:10;4.03;;;1.75;;
29774;SDS011;16676;51.202;6.774;2023-05-03T07:37:13;3.35;;;2.15;;
29774;SDS011;16676;51.202;6.774;2023-05-03T07:41:16;2.80;;;1.80;;
29774;SDS011;16676;51.202;6.774;2023-05-03T07:45:18;6.13;;;1.95;;
29774;SDS011;16676;51.202;6.774;2023-05-03T07:49:20;2.63;;;1.75;;
29774;SDS011;16676;51.202;6.774;2023-05-03T07:53:23;3.50;;;1.80;;
29774;SDS011;16676;51.202;6.774;2023-05-03T07:57:25;2.58;;;1.60;;
29774;SDS011;16676;51.202;6.774;2023-05-03T08:01:27;6.10;;;2.00;;
29774;SDS011;16676;51.202;6.774;2023-05-03T08:05:29;3.60;;;1.85;;
29774;SDS011;16676;51.202;6.774;2023-05-03T08:09:32;2.85;;;1.60;;
29774;SDS011;16676;51.202;6.774;2023-05-03T08:13:34;5.10;;;1.88;;
29774;SDS011;16676;51.202;6.774;2023-05-03T08:17:39;4.82;;;1.98;;
29774;SDS011;16676;51.202;6.774;2023-05-03T08:21:42;3.78;;;1.67;;
29774;SDS011;16676;51.202;6.774;2023-05-03T08:25:47;3.22;;;1.85;;
29774;SDS011;16676;51.202;6.774;2023-05-03T08:29:49;2.63;;;1.60;;
29774;SDS011;16676;51.202;6.774;2023-05-03T08:33:51;2.85;;;1.70;;
29774;SDS011;16676;51.202;6.774;2023-05-03T08:37:53;3.83;;;1.88;;
29774;SDS011;16676;51.202;6.774;2023-05-03T08:41:56;4.35;;;2.03;;
29774;SDS011;16676;51.202;6.774;2023-05-03T08:45:59;2.53;;;1.73;;
29774;SDS011;16676;51.202;6.774;2023-05-03T08:50:02;4.18;;;1.88;;
29774;SDS011;16676;51.202;6.774;2023-05-03T08:54:05;4.20;;;1.73;;
29774;SDS011;16676;51.202;6.774;2023-05-03T08:58:08;4.00;;;1.55;;
29774;SDS011;16676;51.202;6.774;2023-05-03T09:02:11;2.20;;;1.63;;
29774;SDS011;16676;51.202;6.774;2023-05-03T09:06:18;4.10;;;1.90;;
29774;SDS011;16676;51.202;6.774;2023-05-03T09:10:22;2.97;;;1.80;;
29774;SDS011;16676;51.202;6.774;2023-05-03T09:14:25;4.55;;;1.90;;
29774;SDS011;16676;51.202;6.774;2023-05-03T09:18:27;3.42;;;1.65;;
29774;SDS011;16676;51.202;6.774;2023-05-03T09:22:30;4.90;;;1.90;;
29774;SDS011;16676;51.202;6.774;2023-05-03T09:26:34;3.97;;;2.00;;
29774;SDS011;16676;51.202;6.774;2023-05-03T09:30:37;3.78;;;1.55;;
29774;SDS011;16676;51.202;6.774;2023-05-03T09:34:39;4.95;;;1.65;;
29774;SDS011;16676;51.202;6.774;2023-05-03T09:38:41;3.22;;;1.40;;
29774;SDS011;16676;51.202;6.774;2023-05-03T09:47:09;1.95;;;1.30;;
29774;SDS011;16676;51.202;6.774;2023-05-03T09:51:12;2.90;;;1.48;;
29774;SDS011;16676;51.202;6.774;2023-05-03T09:55:15;4.00;;;1.70;;
29774;SDS011;16676;51.202;6.774;2023-05-03T09:59:17;2.45;;;1.23;;
29774;SDS011;16676;51.202;6.774;2023-05-03T10:03:23;2.72;;;1.40;;
29774;SDS011;16676;51.202;6.774;2023-05-03T10:07:32;3.00;;;1.40;;
29774;SDS011;16676;51.202;6.774;2023-05-03T10:11:35;4.05;;;1.48;;
29774;SDS011;16676;51.202;6.774;2023-05-03T10:15:37;2.58;;;1.60;;
29774;SDS011;16676;51.202;6.774;2023-05-03T10:19:46;2.30;;;1.40;;
29774;SDS011;16676;51.202;6.774;2023-05-03T10:24:08;1.90;;;1.38;;
29774;SDS011;16676;51.202;6.774;2023-05-03T10:28:11;4.25;;;1.70;;
29774;SDS011;16676;51.202;6.774;2023-05-03T10:32:27;3.17;;;1.80;;
29774;SDS011;16676;51.202;6.774;2023-05-03T10:36:31;2.30;;;1.50;;
29774;SDS011;16676;51.202;6.774;2023-05-03T10:40:39;2.42;;;1.30;;
29774;SDS011;16676;51.202;6.774;2023-05-03T10:44:49;3.72;;;1.60;;
29774;SDS011;16676;51.202;6.774;2023-05-03T10:53:36;3.13;;;1.48;;
29774;SDS011;16676;51.202;6.774;2023-05-03T10:57:39;1.67;;;1.35;;
29774;SDS011;16676;51.202;6.774;2023-05-03T11:01:43;5.22;;;1.70;;
29774;SDS011;16676;51.202;6.774;2023-05-03T11:05:47;3.33;;;1.67;;
29774;SDS011;16676;51.202;6.774;2023-05-03T11:09:50;3.05;;;1.40;;
29774;SDS011;16676;51.202;6.774;2023-05-03T11:13:52;2.13;;;1.35;;
29774;SDS011;16676;51.202;6.774;2023-05-03T11:17:54;3.25;;;1.55;;
29774;SDS011;16676;51.202;6.774;2023-05-03T11:21:56;2.22;;;1.17;;
29774;SDS011;16676;51.202;6.774;2023-05-03T11:26:00;2.22;;;1.20;;
29774;SDS011;16676;51.202;6.774;2023-05-03T11:30:06;2.47;;;1.40;;
29774;SDS011;16676;51.202;6.774;2023-05-03T11:34:09;4.20;;;1.50;;
29774;SDS011;16676;51.202;6.774;2023-05-03T11:38:11;2.42;;;1.20;;
29774;SDS011;16676;51.202;6.774;2023-05-03T11:42:14;2.17;;;1.42;;
29774;SDS011;16676;51.202;6.774;2023-05-03T11:46:17;2.63;;;1.40;;
29774;SDS011;16676;51.202;6.774;2023-05-03T11:50:42;4.78;;;1.70;;
29774;SDS011;16676;51.202;6.774;2023-05-03T11:54:45;2.47;;;0.95;;
29774;SDS011;16676;51.202;6.774;2023-05-03T11:58:49;3.05;;;1.20;;
29774;SDS011;16676;51.202;6.774;2023-05-03T12:02:52;2.00;;;1.00;;
29774;SDS011;16676;51.202;6.774;2023-05-03T12:06:54;3.28;;;1.30;;
29774;SDS011;16676;51.202;6.774;2023-05-03T12:10:56;2.92;;;1.20;;
29774;SDS011;16676;51.202;6.774;2023-05-03T12:15:02;3.22;;;1.38;;
29774;SDS011;16676;51.202;6.774;2023-05-03T12:19:05;3.35;;;1.30;;
29774;SDS011;16676;51.202;6.774;2023-05-03T12:23:07;2.45;;;1.27;;
29774;SDS011;16676;51.202;6.774;2023-05-03T12:27:09;1.60;;;0.90;;
29774;SDS011;16676;51.202;6.774;2023-05-03T12:31:14;3.15;;;1.60;;
29774;SDS011;16676;51.202;6.774;2023-05-03T12:35:16;3.38;;;1.40;;
29774;SDS011;16676;51.202;6.774;2023-05-03T12:39:20;3.60;;;1.40;;
29774;SDS011;16676;51.202;6.774;2023-05-03T12:43:21;2.45;;;1.48;;
29774;SDS011;16676;51.202;6.774;2023-05-03T12:47:25;3.58;;;1.40;;
29774;SDS011;16676;51.202;6.774;2023-05-03T12:51:27;2.80;;;1.27;;
29774;SDS011;16676;51.202;6.774;2023-05-03T12:55:30;2.70;;;1.42;;
29774;SDS011;16676;51.202;6.774;2023-05-03T12:59:33;2.83;;;1.20;;
29774;SDS011;16676;51.202;6.774;2023-05-03T13:03:36;3.85;;;1.50;;
29774;SDS011;16676;51.202;6.774;2023-05-03T13:07:38;2.53;;;1.30;;
29774;SDS011;16676;51.202;6.774;2023-05-03T13:11:40;4.53;;;1.30;;
29774;SDS011;16676;51.202;6.774;2023-05-03T13:15:43;3.72;;;1.50;;
29774;SDS011;16676;51.202;6.774;2023-05-03T13:19:46;3.85;;;1.15;;
29774;SDS011;16676;51.202;6.774;2023-05-03T13:23:49;1.70;;;1.30;;
29774;SDS011;16676;51.202;6.774;2023-05-03T13:27:51;3.35;;;1.25;;
29774;SDS011;16676;51.202;6.774;2023-05-03T13:31:53;1.40;;;1.00;;
29774;SDS011;16676;51.202;6.774;2023-05-03T13:35:56;3.45;;;1.40;;
29774;SDS011;16676;51.202;6.774;2023-05-03T13:39:58;1.85;;;1.00;;
29774;SDS011;16676;51.202;6.774;2023-05-03T13:44:00;2.08;;;1.50;;
29774;SDS011;16676;51.202;6.774;2023-05-03T13:48:03;2.03;;;1.30;;
29774;SDS011;16676;51.202;6.774;2023-05-03T13:52:07;2.65;;;1.10;;
29774;SDS011;16676;51.202;6.774;2023-05-03T13:56:09;1.25;;;0.90;;
29774;SDS011;16676;51.202;6.774;2023-05-03T14:00:12;1.58;;;1.10;;
29774;SDS011;16676;51.202;6.774;2023-05-03T14:04:15;2.15;;;1.20;;
29774;SDS011;16676;51.202;6.774;2023-05-03T14:08:18;3.08;;;1.17;;
29774;SDS011;16676;51.202;6.774;2023-05-03T14:12:20;3.45;;;1.40;;
29774;SDS011;16676;51.202;6.774;2023-05-03T14:16:22;2.67;;;1.23;;
29774;SDS011;16676;51.202;6.774;2023-05-03T14:20:26;1.90;;;1.30;;
29774;SDS011;16676;51.202;6.774;2023-05-03T14:24:29;2.08;;;1.20;;
29774;SDS011;16676;51.202;6.774;2023-05-03T14:28:31;2.53;;;1.10;;
29774;SDS011;16676;51.202;6.774;2023-05-03T14:32:33;2.83;;;1.38;;
29774;SDS011;16676;51.202;6.774;2023-05-03T14:36:35;1.80;;;1.20;;
29774;SDS011;16676;51.202;6.774;2023-05-03T14:40:44;2.90;;;1.10;;
29774;SDS011;16676;51.202;6.774;2023-05-03T14:44:45;2.13;;;0.93;;
29774;SDS011;16676;51.202;6.774;2023-05-03T14:48:47;1.52;;;0.98;;
29774;SDS011;16676;51.202;6.774;2023-05-03T14:52:49;1.70;;;1.00;;
29774;SDS011;16676;51.202;6.774;2023-05-03T14:56:53;4.93;;;1.10;;
29774;SDS011;16676;51.202;6.774;2023-05-03T15:00:54;3.20;;;1.25;;
29774;SDS011;16676;51.202;6.774;2023-05-03T15:04:56;3.15;;;1.20;;
29774;SDS011;16676;51.202;6.774;2023-05-03T15:08:59;1.70;;;1.10;;
29774;SDS011;16676;51.202;6.774;2023-05-03T15:13:02;3.22;;;1.35;;
29774;SDS011;16676;51.202;6.774;2023-05-03T15:17:04;1.92;;;1.23;;
29774;SDS011;16676;51.202;6.774;2023-05-03T15:21:06;3.05;;;1.50;;
29774;SDS011;16676;51.202;6.774;2023-05-03T15:25:08;3.15;;;1.30;;
29774;SDS011;16676;51.202;6.774;2023-05-03T15:29:11;1.73;;;1.15;;
29774;SDS011;16676;51.202;6.774;2023-05-03T15:33:14;2.92;;;1.25;;
29774;SDS011;16676;51.202;6.774;2023-05-03T15:37:15;3.58;;;1.60;;
29774;SDS011;16676;51.202;6.774;2023-05-03T15:41:17;3.08;;;1.20;;
29774;SDS011;16676;51.202;6.774;2023-05-03T15:45:21;2.85;;;1.83;;
29774;SDS011;16676;51.202;6.774;2023-05-03T15:49:26;3.60;;;1.95;;
29774;SDS011;16676;51.202;6.774;2023-05-03T15:53:28;2.50;;;1.60;;
29774;SDS011;16676;51.202;6.774;2023-05-03T15:57:30;4.82;;;2.10;;
29774;SDS011;16676;51.202;6.774;2023-05-03T16:01:33;3.80;;;1.73;;
29774;SDS011;16676;51.202;6.774;2023-05-03T16:05:36;3.13;;;1.80;;
29774;SDS011;16676;51.202;6.774;2023-05-03T16:09:38;2.97;;;1.70;;
29774;SDS011;16676;51.202;6.774;2023-05-03T16:13:42;6.65;;;2.03;;
29774;SDS011;16676;51.202;6.774;2023-05-03T16:17:45;5.35;;;1.92;;
29774;SDS011;16676;51.202;6.774;2023-05-03T16:21:47;9.52;;;2.28;;
29774;SDS011;16676;51.202;6.774;2023-05-03T16:25:49;6.03;;;2.33;;
29774;SDS011;16676;51.202;6.774;2023-05-03T16:29:51;8.25;;;2.65;;
29774;SDS011;16676;51.202;6.774;2023-05-03T16:33:54;5.20;;;2.15;;
29774;SDS011;16676;51.202;6.774;2023-05-03T16:37:57;6.47;;;2.15;;
29774;SDS011;16676;51.202;6.774;2023-05-03T16:41:59;11.75;;;2.47;;
29774;SDS011;16676;51.202;6.774;2023-05-03T16:46:01;8.00;;;2.60;;
29774;SDS011;16676;51.202;6.774;2023-05-03T16:50:06;17.70;;;2.90;;
29774;SDS011;16676;51.202;6.774;2023-05-03T16:54:08;12.23;;;3.10;;
29774;SDS011;16676;51.202;6.774;2023-05-03T16:58:11;16.00;;;3.13;;
29774;SDS011;16676;51.202;6.774;2023-05-03T17:02:13;9.65;;;3.10;;
29774;SDS011;16676;51.202;6.774;2023-05-03T17:06:16;10.65;;;2.17;;
29774;SDS011;16676;51.202;6.774;2023-05-03T17:10:18;4.72;;;2.75;;
29774;SDS011;16676;51.202;6.774;2023-05-03T17:14:20;7.10;;;2.30;;
29774;SDS011;16676;51.202;6.774;2023-05-03T17:18:22;6.75;;;2.65;;
29774;SDS011;16676;51.202;6.774;2023-05-03T17:22:26;7.05;;;2.70;;
29774;SDS011;16676;51.202;6.774;2023-05-03T17:26:28;5.45;;;2.42;;
29774;SDS011;16676;51.202;6.774;2023-05-03T17:30:31;5.75;;;2.60;;
29774;SDS011;16676;51.202;6.774;2023-05-03T17:34:33;5.50;;;2.85;;
29774;SDS011;16676;51.202;6.774;2023-05-03T17:38:37;18.15;;;5.70;;
29774;SDS011;16676;51.202;6.774;2023-05-03T17:42:39;37.20;;;10.30;;
29774;SDS011;16676;51.202;6.774;2023-05-03T17:46:41;60.30;;;15.23;;
29774;SDS011;16676;51.202;6.774;2023-05-03T17:50:43;59.38;;;16.75;;
29774;SDS011;16676;51.202;6.774;2023-05-03T17:54:47;75.22;;;18.95;;
29774;SDS011;16676;51.202;6.774;2023-05-03T17:58:50;66.47;;;17.60;;
29774;SDS011;16676;51.202;6.774;2023-05-03T18:02:52;66.88;;;19.70;;
29774;SDS011;16676;51.202;6.774;2023-05-03T18:06:54;58.08;;;17.27;;
29774;SDS011;16676;51.202;6.774;2023-05-03T18:10:57;62.45;;;15.13;;
29774;SDS011;16676;51.202;6.774;2023-05-03T18:15:00;51.55;;;15.10;;
29774;SDS011;16676;51.202;6.774;2023-05-03T18:19:05;56.53;;;15.98;;
29774;SDS011;16676;51.202;6.774;2023-05-03T18:23:07;50.78;;;14.48;;
29774;SDS011;16676;51.202;6.774;2023-05-03T18:27:10;52.08;;;14.65;;
29774;SDS011;16676;51.202;6.774;2023-05-03T18:31:12;45.13;;;15.10;;
29774;SDS011;16676;51.202;6.774;2023-05-03T18:35:14;54.28;;;17.48;;
29774;SDS011;16676;51.202;6.774;2023-05-03T18:39:16;54.47;;;17.95;;
29774;SDS011;16676;51.202;6.774;2023-05-03T18:43:20;62.05;;;20.17;;
29774;SDS011;16676;51.202;6.774;2023-05-03T18:47:21;63.30;;;22.42;;
29774;SDS011;16676;51.202;6.774;2023-05-03T18:51:23;68.53;;;22.67;;
29774;SDS011;16676;51.202;6.774;2023-05-03T18:55:25;67.47;;;24.38;;
29774;SDS011;16676;51.202;6.774;2023-05-03T18:59:29;69.30;;;24.15;;
29774;SDS011;16676;51.202;6.774;2023-05-03T19:03:31;61.30;;;21.92;;
29774;SDS011;16676;51.202;6.774;2023-05-03T19:07:33;64.28;;;24.27;;
29774;SDS011;16676;51.202;6.774;2023-05-03T19:11:36;69.07;;;23.50;;
29774;SDS011;16676;51.202;6.774;2023-05-03T19:15:41;57.30;;;21.98;;
29774;SDS011;16676;51.202;6.774;2023-05-03T19:19:44;68.43;;;21.48;;
29774;SDS011;16676;51.202;6.774;2023-05-03T19:23:46;68.20;;;23.05;;
29774;SDS011;16676;51.202;6.774;2023-05-03T19:27:48;52.92;;;19.73;;
29774;SDS011;16676;51.202;6.774;2023-05-03T19:31:52;51.95;;;19.85;;
29774;SDS011;16676;51.202;6.774;2023-05-03T19:35:54;53.65;;;18.48;;
29774;SDS011;16676;51.202;6.774;2023-05-03T19:39:56;45.17;;;17.35;;
29774;SDS011;16676;51.202;6.774;2023-05-03T19:43:58;47.83;;;17.90;;
29774;SDS011;16676;51.202;6.774;2023-05-03T19:48:01;46.65;;;18.73;;
29774;SDS011;16676;51.202;6.774;2023-05-03T19:52:04;34.97;;;15.05;;
29774;SDS011;16676;51.202;6.774;2023-05-03T19:56:06;40.13;;;14.93;;
29774;SDS011;16676;51.202;6.774;2023-05-03T20:00:09;40.28;;;14.88;;
29774;SDS011;16676;51.202;6.774;2023-05-03T20:04:14;48.50;;;15.85;;
29774;SDS011;16676;51.202;6.774;2023-05-03T20:08:16;44.35;;;15.18;;
29774;SDS011;16676;51.202;6.774;2023-05-03T20:12:18;46.63;;;15.20;;
29774;SDS011;16676;51.202;6.774;2023-05-03T20:16:20;42.17;;;14.43;;
29774;SDS011;16676;51.202;6.774;2023-05-03T20:20:27;36.92;;;13.75;;
29774;SDS011;16676;51.202;6.774;2023-05-03T20:24:29;41.88;;;14.27;;
29774;SDS011;16676;51.202;6.774;2023-05-03T20:28:31;40.58;;;13.07;;
29774;SDS011;16676;51.202;6.774;2023-05-03T20:32:34;32.58;;;11.65;;
29774;SDS011;16676;51.202;6.774;2023-05-03T20:36:38;32.30;;;12.60;;
29774;SDS011;16676;51.202;6.774;2023-05-03T20:40:39;29.38;;;11.18;;
29774;SDS011;16676;51.202;6.774;2023-05-03T20:44:41;27.23;;;11.88;;
29774;SDS011;16676;51.202;6.774;2023-05-03T20:48:43;31.77;;;10.68;;
29774;SDS011;16676;51.202;6.774;2023-05-03T20:52:46;26.23;;;10.10;;
29774;SDS011;16676;51.202;6.774;2023-05-03T20:56:48;27.92;;;9.93;;
29774;SDS011;16676;51.202;6.774;2023-05-03T21:00:50;25.65;;;9.68;;
29774;SDS011;16676;51.202;6.774;2023-05-03T21:04:52;26.70;;;9.35;;
29774;SDS011;16676;51.202;6.774;2023-05-03T21:08:56;21.85;;;8.65;;
29774;SDS011;16676;51.202;6.774;2023-05-03T21:12:58;23.67;;;8.55;;
29774;SDS011;16676;51.202;6.774;2023-05-03T21:16:59;24.48;;;8.90;;
29774;SDS011;16676;51.202;6.774;2023-05-03T21:21:01;21.27;;;8.05;;
29774;SDS011;16676;51.202;6.774;2023-05-03T21:25:06;28.55;;;8.65;;
29774;SDS011;16676;51.202;6.774;2023-05-03T21:29:08;20.45;;;8.50;;
29774;SDS011;16676;51.202;6.774;2023-05-03T21:33:11;21.55;;;7.78;;
29774;SDS011;16676;51.202;6.774;2023-05-03T21:37:13;19.92;;;7.72;;
29774;SDS011;16676;51.202;6.774;2023-05-03T21:41:16;21.65;;;8.10;;
29774;SDS011;16676;51.202;6.774;2023-05-03T21:45:18;20.77;;;6.97;;
29774;SDS011;16676;51.202;6.774;2023-05-03T21:49:20;20.05;;;7.45;;
29774;SDS011;16676;51.202;6.774;2023-05-03T21:53:22;19.95;;;7.88;;
29774;SDS011;16676;51.202;6.774;2023-05-03T21:57:25;18.60;;;6.70;;
29774;SDS011;16676;51.202;6.774;2023-05-03T22:01:27;18.55;;;7.40;;
29774;SDS011;16676;51.202;6.774;2023-05-03T22:05:29;19.00;;;8.20;;
29774;SDS011;16676;51.202;6.774;2023-05-03T22:09:31;21.52;;;7.13;;
29774;SDS011;16676;51.202;6.774;2023-05-03T22:13:34;19.95;;;6.57;;
29774;SDS011;16676;51.202;6.774;2023-05-03T22:17:37;20.52;;;6.78;;
29774;SDS011;16676;51.202;6.774;2023-05-03T22:21:39;18.95;;;6.28;;
29774;SDS011;16676;51.202;6.774;2023-05-03T22:25:41;15.07;;;5.53;;
29774;SDS011;16676;51.202;6.774;2023-05-03T22:29:44;14.40;;;5.32;;
29774;SDS011;16676;51.202;6.774;2023-05-03T22:33:46;13.25;;;5.82;;
29774;SDS011;16676;51.202;6.774;2023-05-03T22:37:48;13.05;;;5.40;;
29774;SDS011;16676;51.202;6.774;2023-05-03T22:41:50;14.88;;;5.38;;
29774;SDS011;16676;51.202;6.774;2023-05-03T22:45:53;16.98;;;5.65;;
29774;SDS011;16676;51.202;6.774;2023-05-03T22:49:55;13.07;;;5.30;;
29774;SDS011;16676;51.202;6.774;2023-05-03T22:53:57;11.98;;;5.47;;
29774;SDS011;16676;51.202;6.774;2023-05-03T22:57:59;15.75;;;5.93;;
29774;SDS011;16676;51.202;6.774;2023-05-03T23:02:02;12.55;;;5.20;;
29774;SDS011;16676;51.202;6.774;2023-05-03T23:06:05;14.73;;;5.10;;
29774;SDS011;16676;51.202;6.774;2023-05-03T23:10:07;17.20;;;6.05;;
29774;SDS011;16676;51.202;6.774;2023-05-03T23:14:10;12.82;;;5.15;;
29774;SDS011;16676;51.202;6.774;2023-05-03T23:18:13;10.77;;;4.85;;
29774;SDS011;16676;51.202;6.774;2023-05-03T23:22:15;12.98;;;4.97;;
29774;SDS011;16676;51.202;6.774;2023-05-03T23:26:17;10.63;;;4.28;;
29774;SDS011;16676;51.202;6.774;2023-05-03T23:30:19;13.48;;;4.47;;
29774;SDS011;16676;51.202;6.774;2023-05-03T23:34:22;10.70;;;4.65;;
29774;SDS011;16676;51.202;6.774;2023-05-03T23:38:24;11.15;;;3.92;;
29774;SDS011;16676;51.202;6.774;2023-05-03T23:42:26;11.13;;;4.25;;
29774;SDS011;16676;51.202;6.774;2023-05-03T23:46:28;10.73;;;4.43;;
29774;SDS011;16676;51.202;6.774;2023-05-03T23:50:34;10.13;;;4.38;;
29774;SDS011;16676;51.202;6.774;2023-05-03T23:54:35;10.30;;;4.45;;
29774;SDS011;16676;51.202;6.774;2023-05-03T23:58:37;10.30;;;4.45;;
